createdAt,value
2022-12-25T00:01:09.125Z,89.42
2022-12-25T00:03:37.691Z,89.46
2022-12-25T00:06:05.413Z,89.46
2022-12-25T00:08:32.818Z,89.47
2022-12-25T00:11:08.898Z,89.48
2022-12-25T00:13:37.431Z,89.53
2022-12-25T00:16:10.653Z,89.55
2022-12-25T00:18:37.411Z,89.56
2022-12-25T00:21:06.526Z,89.56
2022-12-25T00:23:34.535Z,89.60
2022-12-25T00:26:09.127Z,89.66
2022-12-25T00:28:36.525Z,89.71
2022-12-25T00:31:15.667Z,89.77
2022-12-25T00:33:45.221Z,89.83
2022-12-25T00:36:13.950Z,89.89
2022-12-25T00:38:42.598Z,89.96
2022-12-25T00:41:16.560Z,90.02
2022-12-25T00:43:44.261Z,90.06
2022-12-25T00:46:13.326Z,90.09
2022-12-25T00:48:40.363Z,90.13
2022-12-25T00:51:10.626Z,90.19
2022-12-25T00:53:38.057Z,90.26
2022-12-25T00:56:06.707Z,90.30
2022-12-25T00:58:35.115Z,90.36
2022-12-25T01:01:03.061Z,90.38
2022-12-25T01:03:30.560Z,90.39
2022-12-25T01:06:02.742Z,90.40
2022-12-25T01:08:32.015Z,90.44
2022-12-25T01:11:06.335Z,90.46
2022-12-25T01:13:36.497Z,90.48
2022-12-25T01:16:08.452Z,90.48
2022-12-25T01:18:35.972Z,90.54
2022-12-25T01:21:07.343Z,90.55
2022-12-25T01:23:34.571Z,90.58
2022-12-25T01:26:10.315Z,90.61
2022-12-25T01:28:38.120Z,90.63
2022-12-25T01:31:13.153Z,90.64
2022-12-25T01:33:41.325Z,90.66
2022-12-25T01:36:16.857Z,90.65
2022-12-25T01:38:44.051Z,90.64
2022-12-25T01:41:12.879Z,90.60
2022-12-25T01:44:07.620Z,90.55
2022-12-25T01:46:35.622Z,90.57
2022-12-25T01:49:05.533Z,90.56
2022-12-25T01:52:01.766Z,90.60
2022-12-25T01:54:38.485Z,90.61
2022-12-25T01:57:09.255Z,90.63
2022-12-25T01:59:36.268Z,90.63
2022-12-25T02:02:04.121Z,90.67
2022-12-25T02:04:41.671Z,90.70
2022-12-25T02:07:24.274Z,90.73
2022-12-25T02:09:52.142Z,90.74
2022-12-25T02:12:23.200Z,90.74
2022-12-25T02:14:52.512Z,90.78
2022-12-25T02:17:34.373Z,90.80
2022-12-25T02:20:24.385Z,90.83
2022-12-25T02:23:29.393Z,90.86
2022-12-25T02:26:25.181Z,90.88
2022-12-25T02:29:07.187Z,90.89
2022-12-25T02:31:36.793Z,90.92
2022-12-25T02:34:15.610Z,90.92
2022-12-25T02:37:05.857Z,90.96
2022-12-25T02:39:58.985Z,90.98
2022-12-25T02:43:12.951Z,91.02
2022-12-25T02:46:05.063Z,91.05
2022-12-25T02:48:54.056Z,91.09
2022-12-25T02:51:43.376Z,91.12
2022-12-25T02:54:33.151Z,91.16
2022-12-25T02:57:21.972Z,91.19
2022-12-25T03:00:10.032Z,91.23
2022-12-25T03:02:57.427Z,91.26
2022-12-25T03:05:45.697Z,91.30
2022-12-25T03:08:24.966Z,91.34
2022-12-25T03:11:23.043Z,91.37
2022-12-25T03:13:53.214Z,91.40
2022-12-25T03:16:39.263Z,91.39
2022-12-25T03:19:26.329Z,91.41
2022-12-25T03:22:14.377Z,91.41
2022-12-25T03:25:00.381Z,91.44
2022-12-25T03:27:31.832Z,91.45
2022-12-25T03:30:17.683Z,91.50
2022-12-25T03:33:36.670Z,91.49
2022-12-25T03:36:07.779Z,91.52
2022-12-25T03:39:26.624Z,91.54
2022-12-25T03:42:18.756Z,91.58
2022-12-25T03:45:17.652Z,91.61
2022-12-25T03:48:07.043Z,91.63
2022-12-25T03:51:03.087Z,91.65
2022-12-25T03:54:14.547Z,91.71
2022-12-25T03:57:02.372Z,91.73
2022-12-25T03:59:47.781Z,91.74
2022-12-25T04:02:33.335Z,91.74
2022-12-25T04:05:19.243Z,91.75
2022-12-25T04:08:04.813Z,91.75
2022-12-25T04:10:50.592Z,91.76
2022-12-25T04:13:35.882Z,91.77
2022-12-25T04:16:21.839Z,91.78
2022-12-25T04:19:07.660Z,91.79
2022-12-25T04:21:53.120Z,91.84
2022-12-25T04:24:38.495Z,91.84
2022-12-25T04:27:24.274Z,91.86
2022-12-25T04:30:09.509Z,91.87
2022-12-25T04:32:55.685Z,91.88
2022-12-25T04:35:40.779Z,91.93
2022-12-25T04:38:07.641Z,91.94
2022-12-25T04:40:34.323Z,91.95
2022-12-25T04:43:00.922Z,91.97
2022-12-25T04:45:27.834Z,92.00
2022-12-25T04:47:54.752Z,92.03
2022-12-25T04:50:21.771Z,92.05
2022-12-25T04:52:48.777Z,92.07
2022-12-25T04:55:15.567Z,92.08
2022-12-25T04:57:42.405Z,92.09
2022-12-25T05:00:09.933Z,92.12
2022-12-25T05:02:36.873Z,92.16
2022-12-25T05:05:04.268Z,92.17
2022-12-25T05:07:31.215Z,92.21
2022-12-25T05:09:58.241Z,92.21
2022-12-25T05:12:24.891Z,92.20
2022-12-25T05:14:51.865Z,92.23
2022-12-25T05:17:18.504Z,92.23
2022-12-25T05:19:45.113Z,92.26
2022-12-25T05:22:11.991Z,92.29
2022-12-25T05:24:38.743Z,92.29
2022-12-25T05:27:05.463Z,92.27
2022-12-25T05:29:32.424Z,92.25
2022-12-25T05:31:59.058Z,92.24
2022-12-25T05:34:25.804Z,92.25
2022-12-25T05:36:52.705Z,92.24
2022-12-25T05:39:19.631Z,92.23
2022-12-25T05:41:46.435Z,92.22
2022-12-25T05:44:13.887Z,92.26
2022-12-25T05:46:40.549Z,92.25
2022-12-25T05:49:07.271Z,92.24
2022-12-25T05:51:34.270Z,92.27
2022-12-25T05:54:00.937Z,92.25
2022-12-25T05:56:27.618Z,92.24
2022-12-25T05:58:54.986Z,92.22
2022-12-25T06:01:28.424Z,92.24
2022-12-25T06:03:56.852Z,92.27
2022-12-25T06:06:23.660Z,92.25
2022-12-25T06:08:53.018Z,92.23
2022-12-25T06:11:21.133Z,92.23
2022-12-25T06:13:52.221Z,92.23
2022-12-25T06:16:19.504Z,92.22
2022-12-25T06:18:50.067Z,92.20
2022-12-25T06:21:16.678Z,92.21
2022-12-25T06:23:43.833Z,92.21
2022-12-25T06:26:14.250Z,92.20
2022-12-25T06:28:41.173Z,92.21
2022-12-25T06:31:14.578Z,92.19
2022-12-25T06:33:42.269Z,92.19
2022-12-25T06:36:11.317Z,92.17
2022-12-25T06:38:37.987Z,92.16
2022-12-25T06:41:14.121Z,92.14
2022-12-25T06:43:40.944Z,92.13
2022-12-25T06:46:10.255Z,92.11
2022-12-25T06:48:38.224Z,92.09
2022-12-25T06:51:05.962Z,92.07
2022-12-25T06:53:39.652Z,92.06
2022-12-25T06:56:11.128Z,92.06
2022-12-25T06:58:38.578Z,92.06
2022-12-25T07:01:15.283Z,92.06
2022-12-25T07:03:44.136Z,92.04
2022-12-25T07:06:11.394Z,92.04
2022-12-25T07:08:38.166Z,92.05
2022-12-25T07:11:05.467Z,92.05
2022-12-25T07:13:32.449Z,92.03
2022-12-25T07:16:00.948Z,92.00
2022-12-25T07:18:28.851Z,91.98
2022-12-25T07:20:56.060Z,91.95
2022-12-25T07:23:23.391Z,91.95
2022-12-25T07:26:00.981Z,91.91
2022-12-25T07:28:28.488Z,91.89
2022-12-25T07:30:55.612Z,91.87
2022-12-25T07:33:22.278Z,91.84
2022-12-25T07:35:49.462Z,91.82
2022-12-25T07:38:16.967Z,91.81
2022-12-25T07:40:46.460Z,91.80
2022-12-25T07:43:13.552Z,91.77
2022-12-25T07:45:40.521Z,91.74
2022-12-25T07:48:10.647Z,91.74
2022-12-25T07:50:42.465Z,91.71
2022-12-25T07:53:09.334Z,91.73
2022-12-25T07:55:35.966Z,91.72
2022-12-25T07:58:02.993Z,91.71
2022-12-25T08:00:32.784Z,91.69
2022-12-25T08:03:00.134Z,91.70
2022-12-25T08:05:27.030Z,91.70
2022-12-25T08:07:57.611Z,91.68
2022-12-25T08:10:25.186Z,91.68
2022-12-25T08:12:52.113Z,91.69
2022-12-25T08:15:18.777Z,91.70
2022-12-25T08:17:46.198Z,91.71
2022-12-25T08:20:13.020Z,91.70
2022-12-25T08:22:39.710Z,91.67
2022-12-25T08:25:06.892Z,91.65
2022-12-25T08:27:34.382Z,91.65
2022-12-25T08:30:01.084Z,91.65
2022-12-25T08:32:28.009Z,91.63
2022-12-25T08:34:54.623Z,91.64
2022-12-25T08:37:21.285Z,91.65
2022-12-25T08:39:48.177Z,91.63
2022-12-25T08:42:15.353Z,91.58
2022-12-25T08:44:42.111Z,91.58
2022-12-25T08:47:08.982Z,91.55
2022-12-25T08:49:36.589Z,91.52
2022-12-25T08:52:03.529Z,91.54
2022-12-25T08:54:32.525Z,91.53
2022-12-25T08:57:02.969Z,91.53
2022-12-25T08:59:30.604Z,91.54
2022-12-25T09:01:57.348Z,91.56
2022-12-25T09:04:24.165Z,91.53
2022-12-25T09:06:51.150Z,91.52
2022-12-25T09:09:17.758Z,91.51
2022-12-25T09:11:44.534Z,91.53
2022-12-25T09:14:13.611Z,91.50
2022-12-25T09:16:40.239Z,91.51
2022-12-25T09:19:06.920Z,91.50
2022-12-25T09:21:33.962Z,91.46
2022-12-25T09:24:00.578Z,91.42
2022-12-25T09:26:27.304Z,91.42
2022-12-25T09:28:54.397Z,91.44
2022-12-25T09:31:22.776Z,91.41
2022-12-25T09:33:50.775Z,91.41
2022-12-25T09:36:17.998Z,91.41
2022-12-25T09:38:45.064Z,91.38
2022-12-25T09:41:31.795Z,91.34
2022-12-25T09:44:12.042Z,91.32
2022-12-25T09:46:47.624Z,91.33
2022-12-25T09:49:43.218Z,91.32
2022-12-25T09:52:16.833Z,91.32
2022-12-25T09:54:57.995Z,91.34
2022-12-25T09:57:26.308Z,91.32
2022-12-25T09:59:57.035Z,91.29
2022-12-25T10:02:56.553Z,91.29
2022-12-25T10:05:47.778Z,91.24
2022-12-25T10:08:33.758Z,91.26
2022-12-25T10:11:16.207Z,91.29
2022-12-25T10:14:02.371Z,91.28
2022-12-25T10:16:55.151Z,91.31
2022-12-25T10:19:40.732Z,91.30
2022-12-25T10:22:21.692Z,91.31
2022-12-25T10:24:52.430Z,91.33
2022-12-25T10:27:26.851Z,91.33
2022-12-25T10:29:55.062Z,91.32
2022-12-25T10:32:22.912Z,91.32
2022-12-25T10:34:50.608Z,91.30
2022-12-25T10:37:17.937Z,91.29
2022-12-25T10:39:46.863Z,91.24
2022-12-25T10:42:30.558Z,91.24
2022-12-25T10:45:03.080Z,91.24
2022-12-25T10:47:33.304Z,91.22
2022-12-25T10:50:07.783Z,91.20
2022-12-25T10:52:34.779Z,91.19
2022-12-25T10:55:12.228Z,91.17
2022-12-25T10:57:46.291Z,91.15
2022-12-25T11:00:21.863Z,91.14
2022-12-25T11:02:49.833Z,91.13
2022-12-25T11:05:43.288Z,91.15
2022-12-25T11:08:21.546Z,91.14
2022-12-25T11:11:06.093Z,91.12
2022-12-25T11:13:36.410Z,91.05
2022-12-25T11:16:13.379Z,91.05
2022-12-25T11:18:49.631Z,91.04
2022-12-25T11:21:38.188Z,91.05
2022-12-25T11:24:17.033Z,91.04
2022-12-25T11:26:50.794Z,91.04
2022-12-25T11:29:51.299Z,91.01
2022-12-25T11:32:25.318Z,90.97
2022-12-25T11:34:53.572Z,90.98
2022-12-25T11:37:28.061Z,90.91
2022-12-25T11:39:54.820Z,90.90
2022-12-25T11:42:40.026Z,90.88
2022-12-25T11:45:07.218Z,90.85
2022-12-25T11:47:50.145Z,90.80
2022-12-25T11:50:28.499Z,90.71
2022-12-25T11:52:58.204Z,90.71
2022-12-25T11:55:42.558Z,90.69
2022-12-25T11:58:23.222Z,90.70
2022-12-25T12:00:53.470Z,90.67
2022-12-25T12:03:27.120Z,90.65
2022-12-25T12:06:03.718Z,90.66
2022-12-25T12:08:33.242Z,90.66
2022-12-25T12:11:25.385Z,90.66
2022-12-25T12:14:25.974Z,90.65
2022-12-25T12:16:52.861Z,90.63
2022-12-25T12:19:26.809Z,90.60
2022-12-25T12:21:57.059Z,90.57
2022-12-25T12:24:28.976Z,90.55
2022-12-25T12:27:27.593Z,90.53
2022-12-25T12:29:58.507Z,90.55
2022-12-25T12:32:44.674Z,90.51
2022-12-25T12:35:20.375Z,90.49
2022-12-25T12:37:51.445Z,90.41
2022-12-25T12:40:23.941Z,90.40
2022-12-25T12:42:52.332Z,90.42
2022-12-25T12:45:25.291Z,90.42
2022-12-25T12:47:53.318Z,90.41
2022-12-25T12:50:40.843Z,90.42
2022-12-25T12:53:23.394Z,90.39
2022-12-25T12:55:51.907Z,90.38
2022-12-25T12:58:34.111Z,90.38
2022-12-25T13:01:14.223Z,90.38
2022-12-25T13:03:47.650Z,90.39
2022-12-25T13:06:26.814Z,90.38
2022-12-25T13:09:27.644Z,90.41
2022-12-25T13:11:54.807Z,90.43
2022-12-25T13:14:23.796Z,90.42
2022-12-25T13:16:54.557Z,90.38
2022-12-25T13:19:24.012Z,90.38
2022-12-25T13:22:03.820Z,90.38
2022-12-25T13:24:33.967Z,90.38
2022-12-25T13:27:01.348Z,90.40
2022-12-25T13:29:35.178Z,90.41
2022-12-25T13:32:05.731Z,90.44
2022-12-25T13:34:39.627Z,90.44
2022-12-25T13:37:18.857Z,90.45
2022-12-25T13:40:07.201Z,90.47
2022-12-25T13:42:36.633Z,90.45
2022-12-25T13:45:08.170Z,90.44
2022-12-25T13:47:38.188Z,90.44
2022-12-25T13:50:23.669Z,90.45
2022-12-25T13:52:51.091Z,90.42
2022-12-25T13:55:20.351Z,90.43
2022-12-25T13:57:52.708Z,90.44
2022-12-25T14:00:28.109Z,90.42
2022-12-25T14:02:55.327Z,90.43
2022-12-25T14:05:41.708Z,90.43
2022-12-25T14:08:19.389Z,90.45
2022-12-25T14:10:49.321Z,90.46
2022-12-25T14:13:20.066Z,90.49
2022-12-25T14:15:48.595Z,90.48
2022-12-25T14:18:18.072Z,90.47
2022-12-25T14:21:07.463Z,90.47
2022-12-25T14:23:46.453Z,90.49
2022-12-25T14:26:24.246Z,90.51
2022-12-25T14:29:09.184Z,90.54
2022-12-25T14:31:42.884Z,90.54
2022-12-25T14:34:18.101Z,90.52
2022-12-25T14:36:45.520Z,90.52
2022-12-25T14:39:38.602Z,90.48
2022-12-25T14:42:21.861Z,90.49
2022-12-25T14:45:23.904Z,90.47
2022-12-25T14:47:53.609Z,90.47
2022-12-25T14:50:39.795Z,90.47
2022-12-25T14:53:20.049Z,90.49
2022-12-25T14:55:50.659Z,90.46
2022-12-25T14:58:23.906Z,90.45
2022-12-25T15:00:56.751Z,90.46
2022-12-25T15:03:30.832Z,90.47
2022-12-25T15:06:02.816Z,90.47
2022-12-25T15:08:31.612Z,90.48
2022-12-25T15:11:02.176Z,90.45
2022-12-25T15:13:31.080Z,90.41
2022-12-25T15:16:09.185Z,90.40
2022-12-25T15:18:43.412Z,90.39
2022-12-25T15:21:31.573Z,90.36
2022-12-25T15:24:00.052Z,90.33
2022-12-25T15:26:29.156Z,90.26
2022-12-25T15:28:56.039Z,90.24
2022-12-25T15:31:31.180Z,90.22
2022-12-25T15:34:00.273Z,90.24
2022-12-25T15:36:27.843Z,90.25
2022-12-25T15:38:55.831Z,90.25
2022-12-25T15:41:45.383Z,90.25
2022-12-25T15:44:12.928Z,90.25
2022-12-25T15:46:40.109Z,90.19
2022-12-25T15:49:07.081Z,90.18
2022-12-25T15:51:34.152Z,90.16
2022-12-25T15:54:00.792Z,90.16
2022-12-25T15:56:28.182Z,90.16
2022-12-25T15:58:55.918Z,90.18
2022-12-25T16:01:22.774Z,90.18
2022-12-25T16:03:49.957Z,90.19
2022-12-25T16:06:18.455Z,90.17
2022-12-25T16:08:45.840Z,90.15
2022-12-25T16:11:12.857Z,90.11
2022-12-25T16:13:39.535Z,90.09
2022-12-25T16:16:06.978Z,90.09
2022-12-25T16:18:34.304Z,90.06
2022-12-25T16:21:01.093Z,90.04
2022-12-25T16:23:27.734Z,90.05
2022-12-25T16:25:54.621Z,90.08
2022-12-25T16:28:21.271Z,90.05
2022-12-25T16:30:48.276Z,90.02
2022-12-25T16:33:15.558Z,89.96
2022-12-25T16:35:42.451Z,89.97
2022-12-25T16:38:09.140Z,89.93
2022-12-25T16:40:36.097Z,89.93
2022-12-25T16:43:02.764Z,89.90
2022-12-25T16:45:29.409Z,89.89
2022-12-25T16:47:57.518Z,89.84
2022-12-25T16:50:24.463Z,89.82
2022-12-25T16:52:51.342Z,89.79
2022-12-25T16:55:18.526Z,89.76
2022-12-25T16:57:47.761Z,89.77
2022-12-25T17:00:14.938Z,89.77
2022-12-25T17:02:42.233Z,89.77
2022-12-25T17:05:09.467Z,89.77
2022-12-25T17:07:37.635Z,89.74
2022-12-25T17:10:06.198Z,89.75
2022-12-25T17:12:34.102Z,89.75
2022-12-25T17:15:00.821Z,89.78
2022-12-25T17:17:27.851Z,89.78
2022-12-25T17:19:54.455Z,89.81
2022-12-25T17:22:21.381Z,89.84
2022-12-25T17:24:48.408Z,89.84
2022-12-25T17:27:15.370Z,89.89
2022-12-25T17:29:43.868Z,89.89
2022-12-25T17:32:11.661Z,89.92
2022-12-25T17:34:38.669Z,89.94
2022-12-25T17:37:06.101Z,89.92
2022-12-25T17:39:33.879Z,89.91
2022-12-25T17:42:00.667Z,89.90
2022-12-25T17:44:27.399Z,89.86
2022-12-25T17:46:54.393Z,89.85
2022-12-25T17:49:22.122Z,89.84
2022-12-25T17:51:49.037Z,89.85
2022-12-25T17:54:16.523Z,89.85
2022-12-25T17:56:43.388Z,89.89
2022-12-25T17:59:18.217Z,89.91
2022-12-25T18:01:47.149Z,89.88
2022-12-25T18:04:14.363Z,89.88
2022-12-25T18:06:41.107Z,89.85
2022-12-25T18:09:09.781Z,89.80
2022-12-25T18:11:42.267Z,89.83
2022-12-25T18:14:11.354Z,89.82
2022-12-25T18:16:40.932Z,89.85
2022-12-25T18:19:08.781Z,89.85
2022-12-25T18:21:35.560Z,89.82
2022-12-25T18:24:04.231Z,89.82
2022-12-25T18:26:30.985Z,89.79
2022-12-25T18:28:57.872Z,89.80
2022-12-25T18:31:27.868Z,89.78
2022-12-25T18:33:54.616Z,89.77
2022-12-25T18:36:24.002Z,89.75
2022-12-25T18:38:52.969Z,89.75
2022-12-25T18:41:21.287Z,89.72
2022-12-25T18:43:52.987Z,89.71
2022-12-25T18:46:25.536Z,89.71
2022-12-25T18:48:54.379Z,89.67
2022-12-25T18:51:21.201Z,89.65
2022-12-25T18:53:48.282Z,89.58
2022-12-25T18:56:17.721Z,89.58
2022-12-25T18:58:46.188Z,89.52
2022-12-25T19:01:23.169Z,89.48
2022-12-25T19:03:51.677Z,89.40
2022-12-25T19:06:27.020Z,89.37
2022-12-25T19:08:54.785Z,89.39
2022-12-25T19:11:22.329Z,89.37
2022-12-25T19:13:48.995Z,89.34
2022-12-25T19:16:16.474Z,89.33
2022-12-25T19:18:44.944Z,89.32
2022-12-25T19:21:11.671Z,89.31
2022-12-25T19:23:38.828Z,89.30
2022-12-25T19:26:07.611Z,89.26
2022-12-25T19:28:34.916Z,89.26
2022-12-25T19:31:03.903Z,89.23
2022-12-25T19:33:32.160Z,89.22
2022-12-25T19:36:02.349Z,89.20
2022-12-25T19:38:29.254Z,89.19
2022-12-25T19:41:02.675Z,89.19
2022-12-25T19:43:35.936Z,89.18
2022-12-25T19:46:03.903Z,89.12
2022-12-25T19:48:32.415Z,89.09
2022-12-25T19:50:59.420Z,89.07
2022-12-25T19:53:27.923Z,89.01
2022-12-25T19:55:54.857Z,89.00
2022-12-25T19:58:23.262Z,89.02
2022-12-25T20:01:07.399Z,89.01
2022-12-25T20:03:40.195Z,88.99
2022-12-25T20:06:20.048Z,88.98
2022-12-25T20:08:48.791Z,88.95
2022-12-25T20:11:16.350Z,88.94
2022-12-25T20:13:43.458Z,88.94
2022-12-25T20:16:11.221Z,88.91
2022-12-25T20:18:39.095Z,88.88
2022-12-25T20:21:11.172Z,88.88
2022-12-25T20:23:38.879Z,88.88
2022-12-25T20:26:07.272Z,88.85
2022-12-25T20:28:36.414Z,88.84
2022-12-25T20:31:14.623Z,88.85
2022-12-25T20:33:41.357Z,88.84
2022-12-25T20:36:08.562Z,88.85
2022-12-25T20:38:37.018Z,88.85
2022-12-25T20:43:52.355Z,88.86
2022-12-25T20:46:19.288Z,88.83
2022-12-25T20:48:46.064Z,88.79
2022-12-25T20:51:18.211Z,88.75
2022-12-25T20:53:45.924Z,88.75
2022-12-25T20:56:15.504Z,88.71
2022-12-25T20:58:46.089Z,88.71
2022-12-25T21:01:17.631Z,88.72
2022-12-25T21:03:45.364Z,88.69
2022-12-25T21:06:12.806Z,88.67
2022-12-25T21:08:43.807Z,88.65
2022-12-25T21:11:11.665Z,88.68
2022-12-25T21:13:41.860Z,88.64
2022-12-25T21:16:11.676Z,88.64
2022-12-25T21:18:38.938Z,88.64
2022-12-25T21:21:07.900Z,88.63
2022-12-25T21:23:36.579Z,88.63
2022-12-25T21:26:18.332Z,88.62
2022-12-25T21:28:50.440Z,88.64
2022-12-25T21:31:17.928Z,88.65
2022-12-25T21:33:55.074Z,88.64
2022-12-25T21:36:30.597Z,88.63
2022-12-25T21:39:00.605Z,88.64
2022-12-25T21:41:28.955Z,88.63
2022-12-25T21:43:56.568Z,88.62
2022-12-25T21:46:24.697Z,88.62
2022-12-25T21:48:52.089Z,88.59
2022-12-25T21:51:40.656Z,88.59
2022-12-25T21:54:08.487Z,88.55
2022-12-25T21:56:43.572Z,88.54
2022-12-25T21:59:15.163Z,88.57
2022-12-25T22:01:42.593Z,88.57
2022-12-25T22:04:11.119Z,88.61
2022-12-25T22:06:56.669Z,88.61
2022-12-25T22:09:24.010Z,88.59
2022-12-25T22:12:09.026Z,88.54
2022-12-25T22:14:54.965Z,88.50
2022-12-25T22:17:45.742Z,88.49
2022-12-25T22:20:16.177Z,88.46
2022-12-25T22:22:43.323Z,88.46
2022-12-25T22:25:10.916Z,88.46
2022-12-25T22:27:39.131Z,88.49
2022-12-25T22:30:09.221Z,88.53
2022-12-25T22:32:35.998Z,88.56
2022-12-25T22:35:03.674Z,88.55
2022-12-25T22:37:30.378Z,88.51
2022-12-25T22:39:57.359Z,88.54
2022-12-25T22:42:24.397Z,88.53
2022-12-25T22:44:51.106Z,88.55
2022-12-25T22:47:17.757Z,88.58
2022-12-25T22:49:44.750Z,88.57
2022-12-25T22:52:11.465Z,88.55
2022-12-25T22:54:38.183Z,88.56
2022-12-25T22:57:05.772Z,88.57
2022-12-25T22:59:33.039Z,88.57
2022-12-25T23:02:00.192Z,88.62
2022-12-25T23:04:28.281Z,88.63
2022-12-25T23:06:55.244Z,88.62
2022-12-25T23:09:27.405Z,88.61
2022-12-25T23:11:56.930Z,88.62
2022-12-25T23:14:40.179Z,88.60
2022-12-25T23:17:30.566Z,88.63
2022-12-25T23:20:18.394Z,88.68
2022-12-25T23:23:05.261Z,88.68
2022-12-25T23:25:53.705Z,88.66
2022-12-25T23:28:39.876Z,88.64
2022-12-25T23:31:07.077Z,88.61
2022-12-25T23:33:34.075Z,88.59
2022-12-25T23:36:00.753Z,88.59
2022-12-25T23:38:27.490Z,88.57
2022-12-25T23:40:54.489Z,88.60
2022-12-25T23:43:21.176Z,88.60
2022-12-25T23:45:47.816Z,88.58
2022-12-25T23:48:14.910Z,88.60
2022-12-25T23:50:41.677Z,88.59
2022-12-25T23:53:09.279Z,88.55
2022-12-25T23:55:36.434Z,88.52
2022-12-25T23:58:03.158Z,88.51
